createdAt,value
2017-10-19T00:01:05.026Z,17.50
2017-10-19T00:03:31.391Z,15.98
2017-10-19T00:05:57.798Z,15.30
2017-10-19T00:08:24.221Z,18.87
2017-10-19T00:10:50.607Z,19.80
2017-10-19T00:13:16.995Z,17.02
2017-10-19T00:15:43.387Z,13.73
2017-10-19T00:18:09.767Z,16.67
2017-10-19T00:20:36.159Z,16.05
2017-10-19T00:23:03.541Z,23.23
2017-10-19T00:25:29.879Z,13.93
2017-10-19T00:27:56.303Z,14.38
2017-10-19T00:30:22.836Z,15.48
2017-10-19T00:32:49.251Z,14.77
2017-10-19T00:35:15.647Z,19.27
2017-10-19T00:37:42.011Z,20.02
2017-10-19T00:40:08.429Z,16.00
2017-10-19T00:42:34.851Z,13.10
2017-10-19T00:45:01.303Z,19.25
2017-10-19T00:47:27.743Z,17.55
2017-10-19T00:49:55.195Z,15.07
2017-10-19T00:52:21.568Z,21.20
2017-10-19T00:54:49.019Z,15.77
2017-10-19T00:57:15.450Z,15.52
2017-10-19T00:59:41.858Z,16.95
2017-10-19T01:02:08.339Z,19.02
2017-10-19T01:04:34.735Z,18.12
2017-10-19T01:07:01.875Z,16.33
2017-10-19T01:09:28.351Z,17.37
2017-10-19T01:11:54.775Z,18.77
2017-10-19T01:14:21.180Z,16.95
2017-10-19T01:16:47.571Z,16.10
2017-10-19T01:19:14.027Z,22.00
2017-10-19T01:21:40.451Z,16.10
2017-10-19T01:24:06.849Z,16.30
2017-10-19T01:26:33.276Z,19.87
2017-10-19T01:29:00.747Z,20.33
2017-10-19T01:31:27.980Z,18.58
2017-10-19T01:33:55.154Z,22.58
2017-10-19T01:36:21.539Z,15.68
2017-10-19T01:38:47.982Z,17.55
2017-10-19T01:41:14.428Z,15.90
2017-10-19T01:43:40.824Z,19.08
2017-10-19T01:46:07.246Z,14.80
2017-10-19T01:48:33.676Z,16.40
2017-10-19T01:51:00.107Z,14.73
2017-10-19T01:53:26.581Z,15.35
2017-10-19T01:55:53.056Z,19.30
2017-10-19T01:58:19.455Z,13.62
2017-10-19T02:00:45.871Z,16.98
2017-10-19T02:03:12.299Z,16.92
2017-10-19T02:05:38.707Z,18.00
2017-10-19T02:08:05.119Z,16.27
2017-10-19T02:10:32.528Z,17.65
2017-10-19T02:12:58.988Z,19.27
2017-10-19T02:15:25.355Z,15.80
2017-10-19T02:17:51.730Z,20.92
2017-10-19T02:20:18.183Z,25.73
2017-10-19T02:22:45.315Z,24.48
2017-10-19T02:25:11.764Z,21.90
2017-10-19T02:27:38.170Z,24.70
2017-10-19T02:30:04.539Z,24.48
2017-10-19T02:32:31.032Z,22.05
2017-10-19T02:34:57.439Z,21.05
2017-10-19T02:37:23.812Z,22.25
2017-10-19T02:39:50.243Z,28.20
2017-10-19T02:42:16.645Z,22.37
2017-10-19T02:44:43.799Z,18.15
2017-10-19T02:47:10.192Z,22.25
2017-10-19T02:49:37.315Z,22.02
2017-10-19T02:52:04.463Z,19.52
2017-10-19T02:54:30.930Z,18.10
2017-10-19T02:56:57.331Z,18.37
2017-10-19T02:59:23.745Z,18.27
2017-10-19T03:01:50.207Z,17.12
2017-10-19T03:04:16.653Z,17.50
2017-10-19T03:06:43.054Z,18.20
2017-10-19T03:09:09.471Z,17.87
2017-10-19T03:11:35.899Z,17.98
2017-10-19T03:14:02.295Z,15.75
2017-10-19T03:16:29.455Z,17.80
2017-10-19T03:18:56.611Z,17.95
2017-10-19T03:21:22.963Z,15.50
2017-10-19T03:23:50.419Z,17.83
2017-10-19T03:26:17.571Z,17.85
2017-10-19T03:28:44.712Z,19.30
2017-10-19T03:31:11.134Z,15.65
2017-10-19T03:33:38.647Z,16.37
2017-10-19T03:36:05.032Z,17.37
2017-10-19T03:38:31.484Z,16.62
2017-10-19T03:40:57.920Z,15.77
2017-10-19T03:43:25.068Z,16.85
2017-10-19T03:45:51.547Z,14.75
2017-10-19T03:48:17.948Z,18.75
2017-10-19T03:50:44.320Z,16.45
2017-10-19T03:53:10.702Z,20.00
2017-10-19T03:55:37.069Z,14.07
2017-10-19T03:58:04.535Z,18.45
2017-10-19T04:00:30.910Z,21.17
2017-10-19T04:02:57.308Z,17.15
2017-10-19T04:05:24.419Z,18.02
2017-10-19T04:07:50.839Z,26.75
2017-10-19T04:10:17.235Z,16.95
2017-10-19T04:12:43.621Z,19.70
2017-10-19T04:15:10.073Z,18.58
2017-10-19T04:17:36.405Z,17.98
2017-10-19T04:20:02.851Z,13.73
2017-10-19T04:22:29.240Z,12.32
2017-10-19T04:24:56.392Z,12.95
2017-10-19T04:27:23.515Z,21.35
2017-10-19T04:29:50.631Z,13.07
2017-10-19T04:32:17.017Z,16.90
2017-10-19T04:34:43.446Z,22.30
2017-10-19T04:37:09.860Z,16.48
2017-10-19T04:39:36.291Z,14.73
2017-10-19T04:42:02.656Z,15.52
2017-10-19T04:44:29.049Z,13.10
2017-10-19T04:46:55.471Z,16.58
2017-10-19T04:49:22.666Z,15.05
2017-10-19T04:51:50.165Z,12.90
2017-10-19T04:54:16.575Z,18.83
2017-10-19T04:56:43.687Z,12.55
2017-10-19T04:59:10.127Z,13.35
2017-10-19T05:01:37.236Z,15.00
2017-10-19T05:04:03.647Z,12.25
2017-10-19T05:06:30.774Z,13.68
2017-10-19T05:08:57.155Z,17.23
2017-10-19T05:11:23.591Z,13.68
2017-10-19T05:13:50.031Z,21.05
2017-10-19T05:16:16.447Z,13.38
2017-10-19T05:18:42.843Z,17.02
2017-10-19T05:21:09.260Z,13.93
2017-10-19T05:23:35.671Z,17.25
2017-10-19T05:26:02.060Z,15.10
2017-10-19T05:28:28.506Z,13.52
2017-10-19T05:30:55.631Z,16.17
2017-10-19T05:33:22.003Z,14.35
2017-10-19T05:35:50.471Z,14.32
2017-10-19T05:38:17.579Z,15.38
2017-10-19T05:40:43.972Z,15.25
2017-10-19T05:43:10.403Z,16.12
2017-10-19T05:45:36.781Z,14.95
2017-10-19T05:48:03.168Z,19.87
2017-10-19T05:50:29.582Z,17.92
2017-10-19T05:52:55.984Z,21.05
2017-10-19T05:55:22.471Z,16.80
2017-10-19T05:57:48.875Z,19.45
2017-10-19T06:00:15.255Z,18.92
2017-10-19T06:02:42.359Z,15.88
2017-10-19T06:05:08.763Z,17.95
2017-10-19T06:07:35.872Z,14.57
2017-10-19T06:10:02.310Z,15.60
2017-10-19T06:12:28.719Z,14.27
2017-10-19T06:14:55.140Z,15.52
2017-10-19T06:17:32.412Z,15.40
2017-10-19T06:19:58.846Z,14.68
2017-10-19T06:22:25.217Z,22.48
2017-10-19T06:24:51.563Z,12.73
2017-10-19T06:27:17.975Z,15.48
2017-10-19T06:29:44.335Z,12.25
2017-10-19T06:32:11.447Z,17.62
2017-10-19T06:34:38.571Z,14.70
2017-10-19T06:37:05.043Z,17.45
2017-10-19T06:39:31.467Z,14.60
2017-10-19T06:41:57.843Z,17.00
2017-10-19T06:44:24.939Z,14.23
2017-10-19T06:46:51.340Z,16.75
2017-10-19T06:49:17.756Z,13.70
2017-10-19T06:51:44.199Z,16.30
2017-10-19T06:54:10.608Z,14.65
2017-10-19T06:56:37.024Z,14.20
2017-10-19T06:59:04.141Z,22.87
2017-10-19T07:01:30.531Z,15.35
2017-10-19T07:03:56.967Z,15.10
2017-10-19T07:06:23.343Z,14.20
2017-10-19T07:08:49.743Z,13.48
2017-10-19T07:11:16.167Z,15.90
2017-10-19T07:13:42.579Z,13.27
2017-10-19T07:16:10.731Z,13.70
2017-10-19T07:18:37.087Z,14.07
2017-10-19T07:21:04.191Z,14.63
2017-10-19T07:23:31.380Z,15.35
2017-10-19T07:25:58.795Z,18.42
2017-10-19T07:28:25.179Z,16.73
2017-10-19T07:30:51.663Z,17.63
2017-10-19T07:33:18.055Z,17.03
2017-10-19T07:35:44.491Z,15.90
2017-10-19T07:38:10.864Z,19.07
2017-10-19T07:40:38.069Z,11.67
2017-10-19T07:43:04.455Z,18.80
2017-10-19T07:45:30.815Z,20.63
2017-10-19T07:47:57.232Z,21.27
2017-10-19T07:50:23.576Z,23.37
2017-10-19T07:52:49.987Z,26.37
2017-10-19T07:55:16.319Z,25.47
2017-10-19T07:57:42.711Z,20.90
2017-10-19T08:00:09.178Z,20.17
2017-10-19T08:02:35.563Z,26.77
2017-10-19T08:05:02.050Z,22.40
2017-10-19T08:07:29.206Z,18.20
2017-10-19T08:09:56.470Z,20.20
2017-10-19T08:12:22.892Z,22.90
2017-10-19T08:14:49.270Z,18.67
2017-10-19T08:17:15.649Z,21.03
2017-10-19T08:19:42.764Z,20.80
2017-10-19T08:22:09.248Z,22.20
2017-10-19T08:24:36.331Z,25.30
2017-10-19T08:27:02.724Z,21.77
2017-10-19T08:29:30.119Z,17.83
2017-10-19T08:31:56.539Z,19.60
2017-10-19T08:34:23.643Z,23.80
2017-10-19T08:36:50.024Z,20.27
2017-10-19T08:39:16.383Z,29.73
2017-10-19T08:41:42.775Z,19.30
2017-10-19T08:44:09.219Z,21.67
2017-10-19T08:46:35.595Z,18.60
2017-10-19T08:49:03.051Z,25.97
2017-10-19T08:51:29.468Z,22.67
2017-10-19T08:53:56.019Z,20.93
2017-10-19T08:56:22.408Z,20.30
2017-10-19T08:58:48.783Z,23.03
2017-10-19T09:01:15.903Z,22.30
2017-10-19T09:03:43.063Z,26.67
2017-10-19T09:06:09.463Z,24.10
2017-10-19T09:08:36.588Z,21.00
2017-10-19T09:11:02.995Z,19.57
2017-10-19T09:13:29.383Z,23.80
2017-10-19T09:15:55.736Z,19.60
2017-10-19T09:18:23.867Z,23.00
2017-10-19T09:20:50.421Z,21.90
2017-10-19T09:23:17.552Z,25.57
2017-10-19T09:25:44.684Z,18.70
2017-10-19T09:28:11.074Z,23.93
2017-10-19T09:30:37.456Z,24.10
2017-10-19T09:33:03.907Z,21.30
2017-10-19T09:35:30.301Z,23.57
2017-10-19T09:37:56.627Z,22.83
2017-10-19T09:40:23.011Z,23.97
2017-10-19T09:42:49.430Z,30.83
2017-10-19T09:45:15.811Z,27.80
2017-10-19T09:47:42.219Z,24.73
2017-10-19T09:50:08.615Z,27.10
2017-10-19T09:52:34.984Z,28.23
2017-10-19T09:55:01.415Z,27.80
2017-10-19T09:57:27.803Z,27.50
2017-10-19T09:59:54.199Z,30.60
2017-10-19T10:02:21.404Z,27.10
2017-10-19T10:04:48.515Z,25.03
2017-10-19T10:07:14.936Z,24.50
2017-10-19T10:09:41.370Z,25.40
2017-10-19T10:12:07.783Z,28.40
2017-10-19T10:14:35.215Z,29.47
2017-10-19T10:17:01.648Z,26.83
2017-10-19T10:19:28.071Z,24.30
2017-10-19T10:21:54.471Z,27.50
2017-10-19T10:24:20.870Z,28.53
2017-10-19T10:26:47.371Z,28.97
2017-10-19T10:29:14.627Z,25.00
2017-10-19T10:31:41.075Z,27.07
2017-10-19T10:34:07.461Z,30.10
2017-10-19T10:36:33.839Z,29.60
2017-10-19T10:39:00.222Z,25.10
2017-10-19T10:41:26.607Z,35.50
2017-10-19T10:43:53.007Z,28.37
2017-10-19T10:46:19.363Z,28.40
2017-10-19T10:48:45.784Z,30.37
2017-10-19T10:51:12.929Z,25.83
2017-10-19T10:53:39.327Z,27.73
2017-10-19T10:56:05.730Z,26.70
2017-10-19T10:58:32.143Z,31.73
2017-10-19T11:00:58.527Z,27.77
2017-10-19T11:03:25.628Z,27.97
2017-10-19T11:05:52.001Z,24.63
2017-10-19T11:08:18.435Z,26.53
2017-10-19T11:10:44.854Z,27.50
2017-10-19T11:13:11.211Z,27.57
2017-10-19T11:15:38.392Z,29.40
2017-10-19T11:18:04.776Z,32.60
2017-10-19T11:20:31.910Z,25.13
2017-10-19T11:22:58.311Z,28.53
2017-10-19T11:25:24.695Z,22.93
2017-10-19T11:27:51.055Z,26.03
2017-10-19T11:30:17.519Z,38.93
2017-10-19T11:32:43.939Z,26.93
2017-10-19T11:35:10.340Z,26.80
2017-10-19T11:37:36.724Z,29.60
2017-10-19T11:40:03.870Z,28.57
2017-10-19T11:42:30.300Z,24.70
2017-10-19T11:44:56.706Z,30.83
2017-10-19T11:47:23.841Z,29.47
2017-10-19T11:49:50.989Z,25.00
2017-10-19T11:52:17.375Z,25.53
2017-10-19T11:54:45.596Z,24.70
2017-10-19T11:57:11.943Z,27.20
2017-10-19T11:59:38.383Z,23.73
2017-10-19T12:02:05.492Z,23.10
2017-10-19T12:04:33.663Z,26.57
2017-10-19T12:07:00.071Z,26.87
2017-10-19T12:09:27.202Z,27.57
2017-10-19T12:11:53.571Z,31.53
2017-10-19T12:14:19.974Z,24.60
2017-10-19T12:16:46.331Z,24.60
2017-10-19T12:19:12.743Z,24.30
2017-10-19T12:21:39.124Z,19.57
2017-10-19T12:24:05.451Z,20.60
2017-10-19T12:26:31.839Z,22.30
2017-10-19T12:28:58.907Z,25.33
2017-10-19T12:31:25.306Z,26.67
2017-10-19T12:33:51.710Z,23.60
2017-10-19T12:36:18.056Z,25.97
2017-10-19T12:38:44.423Z,25.47
2017-10-19T12:41:11.564Z,25.60
2017-10-19T12:43:37.935Z,25.03
2017-10-19T12:46:04.336Z,22.63
2017-10-19T12:48:30.699Z,25.60
2017-10-19T12:50:57.052Z,19.47
2017-10-19T12:53:23.483Z,22.27
2017-10-19T12:55:49.880Z,23.03
2017-10-19T12:58:16.263Z,27.63
2017-10-19T13:00:43.395Z,26.03
2017-10-19T13:03:09.816Z,22.60
2017-10-19T13:05:36.227Z,23.27
2017-10-19T13:08:02.563Z,21.50
2017-10-19T13:10:28.939Z,25.70
2017-10-19T13:12:55.339Z,23.87
2017-10-19T13:15:21.747Z,20.87
2017-10-19T13:17:48.109Z,20.57
2017-10-19T13:20:14.499Z,25.73
2017-10-19T13:22:40.894Z,21.23
2017-10-19T13:25:07.239Z,22.63
2017-10-19T13:27:34.397Z,26.53
2017-10-19T13:30:01.497Z,25.30
2017-10-19T13:32:27.896Z,20.23
2017-10-19T13:34:54.259Z,25.83
2017-10-19T13:37:21.421Z,24.93
2017-10-19T13:39:47.799Z,24.87
2017-10-19T13:42:14.232Z,20.47
2017-10-19T13:44:41.320Z,21.93
2017-10-19T13:47:07.704Z,23.10
2017-10-19T13:49:34.095Z,25.60
2017-10-19T13:52:01.244Z,21.03
2017-10-19T13:54:27.591Z,23.57
2017-10-19T13:56:53.987Z,18.23
2017-10-19T13:59:20.417Z,26.47
2017-10-19T14:01:46.791Z,19.57
2017-10-19T14:04:13.136Z,20.80
2017-10-19T14:06:39.515Z,18.33
2017-10-19T14:09:05.912Z,20.80
2017-10-19T14:11:32.316Z,21.47
2017-10-19T14:13:58.705Z,22.93
2017-10-19T14:16:25.059Z,19.10
2017-10-19T14:18:51.488Z,25.00
2017-10-19T14:21:17.871Z,20.57
2017-10-19T14:23:45.227Z,24.53
2017-10-19T14:26:11.629Z,20.63
2017-10-19T14:28:38.023Z,20.60
2017-10-19T14:31:05.380Z,20.13
2017-10-19T14:33:31.791Z,23.53
2017-10-19T14:35:58.182Z,22.90
2017-10-19T14:38:24.623Z,20.00
2017-10-19T14:40:51.011Z,18.63
2017-10-19T14:43:17.371Z,20.57
2017-10-19T14:45:43.796Z,20.30
2017-10-19T14:48:10.232Z,20.63
2017-10-19T14:50:36.636Z,23.17
2017-10-19T14:53:03.024Z,17.57
2017-10-19T14:55:29.444Z,19.53
2017-10-19T14:57:55.816Z,16.80
2017-10-19T15:00:22.944Z,16.47
2017-10-19T15:02:49.332Z,14.63
2017-10-19T15:05:15.704Z,13.63
2017-10-19T15:07:42.091Z,15.10
2017-10-19T15:10:08.479Z,23.10
2017-10-19T15:12:34.832Z,15.83
2017-10-19T15:15:01.260Z,16.67
2017-10-19T15:17:27.644Z,15.80
2017-10-19T15:19:54.801Z,18.57
2017-10-19T15:22:23.024Z,15.63
2017-10-19T15:24:49.405Z,17.20
2017-10-19T15:27:15.801Z,15.37
2017-10-19T15:29:42.175Z,15.10
2017-10-19T15:32:08.555Z,15.47
2017-10-19T15:34:36.064Z,17.13
2017-10-19T15:37:03.183Z,21.33
2017-10-19T15:39:29.584Z,14.30
2017-10-19T15:41:56.012Z,20.10
2017-10-19T15:44:23.149Z,16.30
2017-10-19T15:46:49.479Z,14.83
2017-10-19T15:49:16.575Z,22.07
2017-10-19T15:51:43.743Z,18.80
2017-10-19T15:54:10.882Z,18.73
2017-10-19T15:56:38.039Z,20.03
2017-10-19T15:59:04.453Z,20.20
2017-10-19T16:01:30.840Z,14.07
2017-10-19T16:03:57.952Z,15.50
2017-10-19T16:06:25.119Z,18.53
2017-10-19T16:08:51.519Z,17.90
2017-10-19T16:11:18.694Z,19.17
2017-10-19T16:13:45.080Z,22.40
2017-10-19T16:16:11.445Z,23.53
2017-10-19T16:18:37.861Z,17.73
2017-10-19T16:21:04.228Z,15.90
2017-10-19T16:23:30.599Z,19.80
2017-10-19T16:25:57.702Z,24.37
2017-10-19T16:28:24.130Z,16.27
2017-10-19T16:30:50.492Z,19.70
2017-10-19T16:33:16.895Z,20.30
2017-10-19T16:35:43.283Z,16.70
2017-10-19T16:38:09.689Z,15.47
2017-10-19T16:40:36.097Z,27.43
2017-10-19T16:43:02.527Z,24.40
2017-10-19T16:45:28.935Z,23.03
2017-10-19T16:47:55.351Z,18.47
2017-10-19T16:50:21.803Z,17.73
2017-10-19T16:52:48.207Z,20.90
2017-10-19T16:55:14.604Z,20.23
2017-10-19T16:57:41.038Z,17.60
2017-10-19T17:00:07.511Z,21.23
2017-10-19T17:02:34.659Z,18.50
2017-10-19T17:05:01.069Z,17.30
2017-10-19T17:07:27.519Z,19.97
2017-10-19T17:09:55.051Z,20.83
2017-10-19T17:12:21.579Z,16.30
2017-10-19T17:14:48.779Z,19.23
2017-10-19T17:17:15.417Z,18.60
2017-10-19T17:19:42.292Z,19.00
2017-10-19T17:22:09.289Z,16.67
2017-10-19T17:24:36.407Z,23.33
2017-10-19T17:27:03.888Z,21.73
2017-10-19T17:29:31.402Z,19.00
2017-10-19T17:32:00.246Z,20.50
2017-10-19T17:34:28.193Z,23.90
2017-10-19T17:36:56.187Z,21.50
2017-10-19T17:39:24.187Z,20.47
2017-10-19T17:41:52.003Z,17.60
2017-10-19T17:44:20.853Z,17.70
2017-10-19T17:46:48.742Z,15.00
2017-10-19T17:49:17.568Z,24.10
2017-10-19T17:51:45.641Z,20.73
2017-10-19T17:54:14.613Z,25.30
2017-10-19T17:56:42.524Z,19.33
2017-10-19T17:59:11.306Z,23.63
2017-10-19T18:01:39.274Z,22.60
2017-10-19T18:04:07.414Z,21.37
2017-10-19T18:06:35.521Z,16.20
2017-10-19T18:09:04.459Z,16.93
2017-10-19T18:11:32.473Z,16.53
2017-10-19T18:14:00.492Z,15.20
2017-10-19T18:16:28.478Z,15.80
2017-10-19T18:18:56.525Z,20.73
2017-10-19T18:21:25.380Z,21.73
2017-10-19T18:23:53.500Z,17.50
2017-10-19T18:26:21.382Z,16.90
2017-10-19T18:34:59.635Z,21.23
2017-10-19T18:37:27.642Z,21.07
2017-10-19T18:39:56.477Z,16.60
2017-10-19T18:42:24.378Z,18.43
2017-10-19T18:44:53.034Z,16.47
2017-10-19T18:47:20.864Z,17.13
2017-10-19T18:49:48.970Z,19.10
2017-10-19T18:52:16.785Z,19.90
2017-10-19T18:54:44.825Z,16.33
2017-10-19T18:57:12.710Z,19.27
2017-10-19T18:59:40.746Z,20.13
2017-10-19T19:02:09.297Z,19.17
2017-10-19T19:04:37.297Z,18.57
2017-10-19T19:07:05.138Z,16.53
2017-10-19T19:09:33.227Z,18.37
2017-10-19T19:12:01.031Z,15.57
2017-10-19T19:14:29.585Z,14.90
2017-10-19T19:16:57.759Z,17.40
2017-10-19T19:19:26.218Z,16.43
2017-10-19T19:21:54.234Z,18.70
2017-10-19T19:24:23.057Z,16.67
2017-10-19T19:26:51.773Z,14.47
2017-10-19T19:29:20.390Z,16.93
2017-10-19T19:31:50.046Z,18.20
2017-10-19T19:34:18.079Z,16.57
2017-10-19T19:36:46.093Z,16.03
2017-10-19T19:39:14.049Z,18.70
2017-10-19T19:41:42.018Z,18.97
2017-10-19T19:44:10.793Z,17.50
2017-10-19T19:46:39.490Z,15.17
2017-10-19T19:49:07.337Z,15.93
2017-10-19T19:51:35.308Z,17.97
2017-10-19T19:54:03.373Z,19.57
2017-10-19T19:56:31.173Z,16.60
2017-10-19T19:58:59.257Z,16.33
2017-10-19T20:01:27.082Z,15.67
2017-10-19T20:03:55.795Z,21.67
2017-10-19T20:06:23.853Z,12.50
2017-10-19T20:08:51.705Z,17.33
2017-10-19T20:11:20.332Z,14.80
2017-10-19T20:13:48.492Z,18.03
2017-10-19T20:16:17.166Z,17.10
2017-10-19T20:18:45.073Z,16.57
2017-10-19T20:21:12.922Z,18.63
2017-10-19T20:23:40.989Z,16.70
2017-10-19T20:26:08.859Z,16.67
2017-10-19T20:28:37.672Z,13.60
2017-10-19T20:31:05.511Z,20.73
2017-10-19T20:33:33.304Z,14.97
2017-10-19T20:36:02.913Z,18.53
2017-10-19T20:38:31.395Z,21.07
2017-10-19T20:41:00.088Z,16.93
2017-10-19T20:43:28.047Z,12.90
2017-10-19T20:45:55.948Z,19.67
2017-10-19T20:48:23.777Z,16.73
2017-10-19T20:50:51.772Z,15.33
2017-10-19T20:53:19.568Z,17.20
2017-10-19T20:55:47.260Z,16.10
2017-10-19T20:58:15.268Z,17.17
2017-10-19T21:00:43.981Z,17.13
2017-10-19T21:03:12.588Z,12.20
2017-10-19T21:05:41.108Z,15.17
2017-10-19T21:08:08.998Z,16.77
2017-10-19T21:10:37.052Z,17.03
2017-10-19T21:13:05.844Z,13.50
2017-10-19T21:15:33.773Z,19.03
2017-10-19T21:18:01.594Z,20.23
2017-10-19T21:20:30.245Z,15.10
2017-10-19T21:22:58.057Z,13.67
2017-10-19T21:25:25.822Z,13.00
2017-10-19T21:27:53.427Z,13.60
2017-10-19T21:30:21.782Z,14.37
2017-10-19T21:32:49.000Z,15.20
2017-10-19T21:35:16.335Z,13.57
2017-10-19T21:37:42.808Z,13.80
2017-10-19T21:40:09.248Z,17.43
2017-10-19T21:42:35.736Z,21.73
2017-10-19T21:45:02.542Z,12.97
2017-10-19T21:47:29.679Z,14.97
2017-10-19T21:49:56.079Z,19.93
2017-10-19T21:52:22.462Z,19.77
2017-10-19T21:54:48.868Z,13.87
2017-10-19T21:57:15.308Z,18.53
2017-10-19T21:59:42.449Z,13.40
2017-10-19T22:02:08.887Z,14.63
2017-10-19T22:04:35.372Z,12.60
2017-10-19T22:07:01.839Z,12.83
2017-10-19T22:09:28.259Z,14.37
2017-10-19T22:11:54.720Z,13.90
2017-10-19T22:14:21.143Z,13.87
2017-10-19T22:16:47.549Z,12.07
2017-10-19T22:19:14.698Z,15.80
2017-10-19T22:21:41.110Z,14.00
2017-10-19T22:24:07.523Z,17.20
2017-10-19T22:26:33.935Z,19.63
2017-10-19T22:29:00.339Z,11.57
2017-10-19T22:31:26.754Z,15.87
2017-10-19T22:33:53.147Z,13.13
2017-10-19T22:36:19.536Z,12.27
2017-10-19T22:38:45.957Z,17.93
2017-10-19T22:41:12.416Z,12.00
2017-10-19T22:43:38.849Z,12.37
2017-10-19T22:46:05.265Z,18.17
2017-10-19T22:48:31.747Z,16.43
2017-10-19T22:50:58.148Z,14.20
2017-10-19T22:53:24.590Z,11.10
2017-10-19T22:55:51.420Z,16.83
2017-10-19T22:58:17.940Z,11.40
2017-10-19T23:00:52.035Z,11.73
2017-10-19T23:03:19.331Z,15.47
2017-10-19T23:05:46.281Z,13.10
2017-10-19T23:08:13.515Z,12.37
2017-10-19T23:10:49.359Z,17.10
2017-10-19T23:13:15.817Z,13.30
2017-10-19T23:15:42.294Z,14.33
2017-10-19T23:18:08.735Z,16.97
2017-10-19T23:20:36.056Z,17.73
2017-10-19T23:23:02.572Z,15.70
2017-10-19T23:25:29.745Z,13.40
2017-10-19T23:27:56.860Z,12.57
2017-10-19T23:30:23.424Z,17.53
2017-10-19T23:32:49.856Z,10.77
2017-10-19T23:35:16.263Z,18.83
2017-10-19T23:37:42.708Z,11.53
2017-10-19T23:40:09.172Z,11.00
2017-10-19T23:42:35.568Z,13.10
2017-10-19T23:45:02.020Z,12.33
2017-10-19T23:47:29.304Z,15.67
2017-10-19T23:49:55.743Z,15.57
2017-10-19T23:52:22.216Z,16.50
2017-10-19T23:54:49.355Z,13.00
2017-10-19T23:57:15.709Z,12.37
2017-10-19T23:59:42.168Z,13.60
